createdAt,value
2018-06-01T00:00:01.973Z,0.00
2018-06-01T00:01:01.935Z,0.00
2018-06-01T00:02:01.893Z,0.00
2018-06-01T00:03:01.859Z,0.00
2018-06-01T00:04:01.820Z,0.00
2018-06-01T00:05:01.781Z,0.00
2018-06-01T00:06:01.785Z,0.00
2018-06-01T00:07:01.716Z,0.00
2018-06-01T00:08:01.680Z,0.00
2018-06-01T00:09:01.683Z,0.00
2018-06-01T00:10:01.623Z,0.00
2018-06-01T00:11:01.610Z,0.00
2018-06-01T00:12:01.545Z,0.00
2018-06-01T00:13:01.529Z,0.00
2018-06-01T00:14:01.497Z,0.00
2018-06-01T00:15:01.436Z,0.00
2018-06-01T00:16:01.418Z,0.00
2018-06-01T00:17:01.452Z,0.00
2018-06-01T00:18:01.351Z,0.00
2018-06-01T00:19:01.339Z,0.00
2018-06-01T00:20:01.324Z,0.00
2018-06-01T00:21:01.288Z,0.00
2018-06-01T00:22:01.235Z,0.00
2018-06-01T00:23:01.191Z,0.00
2018-06-01T00:24:01.167Z,0.00
2018-06-01T00:25:01.130Z,0.00
2018-06-01T00:26:01.084Z,0.00
2018-06-01T00:27:01.065Z,0.00
2018-06-01T00:28:01.026Z,0.00
2018-06-01T00:29:00.999Z,0.00
2018-06-01T00:30:00.947Z,0.00
2018-06-01T00:31:00.924Z,0.00
2018-06-01T00:32:00.886Z,0.00
2018-06-01T00:33:00.843Z,0.00
2018-06-01T00:34:00.849Z,0.00
2018-06-01T00:35:00.812Z,0.00
2018-06-01T00:36:00.791Z,0.00
2018-06-01T00:37:00.726Z,0.00
2018-06-01T00:38:00.696Z,0.00
2018-06-01T00:39:00.662Z,0.00
2018-06-01T00:40:00.662Z,0.00
2018-06-01T00:41:00.631Z,0.00
2018-06-01T00:42:00.574Z,0.00
2018-06-01T00:43:00.527Z,0.00
2018-06-01T00:44:00.479Z,0.00
2018-06-01T00:45:00.470Z,0.00
2018-06-01T00:46:00.454Z,0.00
2018-06-01T00:47:00.422Z,0.00
2018-06-01T00:48:00.354Z,0.00
2018-06-01T00:49:00.328Z,0.00
2018-06-01T00:50:00.285Z,0.00
2018-06-01T00:51:00.268Z,0.00
2018-06-01T00:52:01.099Z,0.00
2018-06-01T00:53:00.217Z,0.00
2018-06-01T00:54:01.095Z,0.00
2018-06-01T00:55:00.144Z,0.00
2018-06-01T00:56:00.112Z,0.00
2018-06-01T00:57:00.074Z,0.00
2018-06-01T00:58:00.028Z,0.00
2018-06-01T00:58:59.973Z,0.00
2018-06-01T00:59:59.949Z,0.00
2018-06-01T01:00:59.935Z,0.00
2018-06-01T01:01:59.871Z,0.00
2018-06-01T01:02:59.851Z,0.00
2018-06-01T01:03:59.808Z,0.00
2018-06-01T01:04:59.791Z,0.00
2018-06-01T01:05:59.746Z,0.00
2018-06-01T01:06:59.716Z,0.00
2018-06-01T01:07:59.676Z,0.00
2018-06-01T01:08:59.663Z,0.00
2018-06-01T01:09:59.635Z,0.00
2018-06-01T01:10:59.578Z,0.00
2018-06-01T01:11:59.533Z,0.00
2018-06-01T01:12:59.532Z,0.00
2018-06-01T01:13:59.492Z,0.00
2018-06-01T01:14:59.441Z,0.00
2018-06-01T01:15:59.397Z,0.00
2018-06-01T01:16:59.370Z,0.00
2018-06-01T01:17:59.369Z,0.00
2018-06-01T01:18:59.348Z,0.00
2018-06-01T01:19:59.267Z,0.00
2018-06-01T01:20:59.247Z,0.00
2018-06-01T01:21:59.195Z,0.00
2018-06-01T01:22:59.167Z,0.00
2018-06-01T01:23:59.141Z,0.00
2018-06-01T01:24:59.118Z,0.00
2018-06-01T01:25:59.053Z,0.00
2018-06-01T01:26:59.036Z,0.00
2018-06-01T01:27:59.007Z,0.00
2018-06-01T01:28:59.008Z,0.00
2018-06-01T01:29:58.927Z,0.00
2018-06-01T01:30:58.894Z,0.00
2018-06-01T01:31:58.915Z,0.00
2018-06-01T01:32:58.856Z,0.00
2018-06-01T01:33:58.785Z,0.00
2018-06-01T01:34:58.775Z,0.00
2018-06-01T01:35:58.767Z,0.00
2018-06-01T01:36:58.727Z,0.00
2018-06-01T01:37:58.670Z,0.00
2018-06-01T01:38:58.625Z,0.00
2018-06-01T01:39:58.593Z,0.00
2018-06-01T01:40:58.577Z,0.00
2018-06-01T01:41:58.524Z,0.00
2018-06-01T01:42:58.496Z,0.00
2018-06-01T01:43:58.454Z,0.00
2018-06-01T01:44:58.488Z,0.00
2018-06-01T01:45:58.386Z,0.00
2018-06-01T01:46:58.397Z,0.00
2018-06-01T01:47:58.325Z,0.00
2018-06-01T01:48:58.325Z,0.00
2018-06-01T01:49:58.237Z,0.00
2018-06-01T01:50:58.222Z,0.00
2018-06-01T01:51:58.197Z,0.00
2018-06-01T01:52:58.170Z,0.00
2018-06-01T01:53:58.123Z,0.00
2018-06-01T01:54:58.103Z,0.00
2018-06-01T01:55:58.063Z,0.00
2018-06-01T01:56:58.166Z,0.00
2018-06-01T01:57:57.981Z,0.00
2018-06-01T01:58:57.964Z,0.00
2018-06-01T01:59:57.945Z,0.00
2018-06-01T02:00:57.882Z,0.00
2018-06-01T02:01:57.851Z,0.00
2018-06-01T02:02:57.821Z,0.00
2018-06-01T02:03:57.780Z,0.00
2018-06-01T02:04:57.765Z,0.00
2018-06-01T02:05:57.727Z,0.00
2018-06-01T02:06:57.682Z,0.00
2018-06-01T02:07:57.651Z,0.00
2018-06-01T02:08:57.626Z,0.00
2018-06-01T02:09:57.629Z,0.00
2018-06-01T02:10:57.576Z,0.00
2018-06-01T02:11:57.512Z,0.00
2018-06-01T02:12:57.512Z,0.00
2018-06-01T02:13:57.440Z,0.00
2018-06-01T02:14:57.411Z,0.00
2018-06-01T02:15:57.419Z,0.00
2018-06-01T02:16:57.345Z,0.00
2018-06-01T02:17:57.309Z,0.00
2018-06-01T02:18:57.287Z,0.00
2018-06-01T02:19:57.268Z,0.00
2018-06-01T02:20:57.220Z,0.00
2018-06-01T02:21:57.257Z,0.00
2018-06-01T02:22:57.199Z,0.00
2018-06-01T02:23:57.128Z,0.00
2018-06-01T02:24:57.098Z,0.00
2018-06-01T02:25:57.057Z,0.00
2018-06-01T02:26:57.028Z,0.00
2018-06-01T02:27:56.984Z,0.00
2018-06-01T02:28:56.980Z,0.00
2018-06-01T02:29:56.921Z,4.00
2018-06-01T02:30:56.903Z,4.00
2018-06-01T02:31:56.846Z,4.00
2018-06-01T02:32:56.836Z,0.00
2018-06-01T02:33:56.783Z,4.00
2018-06-01T02:34:56.774Z,4.00
2018-06-01T02:35:56.773Z,4.00
2018-06-01T02:36:56.684Z,4.00
2018-06-01T02:37:56.664Z,4.00
2018-06-01T02:38:56.622Z,4.00
2018-06-01T02:39:56.611Z,8.00
2018-06-01T02:40:56.558Z,4.00
2018-06-01T02:41:56.513Z,8.00
2018-06-01T02:42:56.494Z,8.00
2018-06-01T02:43:56.493Z,12.00
2018-06-01T02:44:56.412Z,12.00
2018-06-01T02:45:56.400Z,16.00
2018-06-01T02:46:56.360Z,16.00
2018-06-01T02:47:56.343Z,20.00
2018-06-01T02:48:56.282Z,20.00
2018-06-01T02:49:56.292Z,20.00
2018-06-01T02:50:56.250Z,20.00
2018-06-01T02:51:56.203Z,24.00
2018-06-01T02:52:56.181Z,24.00
2018-06-01T02:53:56.163Z,28.00
2018-06-01T02:54:56.108Z,32.00
2018-06-01T02:55:56.068Z,28.00
2018-06-01T02:56:56.033Z,36.00
2018-06-01T02:57:55.986Z,36.00
2018-06-01T02:59:10.725Z,40.00
2018-06-01T02:59:56.048Z,48.00
2018-06-01T03:00:56.240Z,60.00
2018-06-01T03:01:55.986Z,72.00
2018-06-01T03:02:55.852Z,88.00
2018-06-01T03:03:55.798Z,108.00
2018-06-01T03:04:55.769Z,128.00
2018-06-01T03:05:55.722Z,152.00
2018-06-01T03:06:55.722Z,180.00
2018-06-01T03:07:55.647Z,208.00
2018-06-01T03:08:55.635Z,252.00
2018-06-01T03:09:55.604Z,300.00
2018-06-01T03:10:55.566Z,348.00
2018-06-01T03:11:55.533Z,392.00
2018-06-01T03:12:55.515Z,420.00
2018-06-01T03:13:55.498Z,444.00
2018-06-01T03:14:55.442Z,476.00
2018-06-01T03:15:55.425Z,496.00
2018-06-01T03:16:55.372Z,524.00
2018-06-01T03:17:55.347Z,560.00
2018-06-01T03:18:55.312Z,604.00
2018-06-01T03:19:55.273Z,664.00
2018-06-01T03:20:55.237Z,764.00
2018-06-01T03:21:55.201Z,880.00
2018-06-01T03:22:55.170Z,1008.00
2018-06-01T03:23:55.145Z,1164.00
2018-06-01T03:24:55.116Z,1364.00
2018-06-01T03:25:55.104Z,1508.00
2018-06-01T03:26:55.052Z,1572.00
2018-06-01T03:27:54.995Z,1540.00
2018-06-01T03:28:54.989Z,1468.00
2018-06-01T03:29:54.965Z,1380.00
2018-06-01T03:30:54.935Z,1292.00
2018-06-01T03:31:54.926Z,1196.00
2018-06-01T03:32:54.845Z,1096.00
2018-06-01T03:33:54.832Z,1036.00
2018-06-01T03:34:54.844Z,1000.00
2018-06-01T03:35:54.737Z,984.00
2018-06-01T03:36:54.852Z,964.00
2018-06-01T03:37:54.787Z,932.00
2018-06-01T03:38:54.764Z,896.00
2018-06-01T03:39:54.652Z,852.00
2018-06-01T03:40:54.582Z,812.00
2018-06-01T03:41:54.593Z,784.00
2018-06-01T03:42:54.605Z,784.00
2018-06-01T03:43:54.475Z,792.00
2018-06-01T03:44:54.473Z,808.00
2018-06-01T03:45:54.465Z,824.00
2018-06-01T03:46:54.415Z,828.00
2018-06-01T03:47:54.425Z,828.00
2018-06-01T03:48:55.149Z,804.00
2018-06-01T03:49:54.283Z,780.00
2018-06-01T03:50:54.283Z,748.00
2018-06-01T03:51:54.248Z,716.00
2018-06-01T03:52:54.203Z,680.00
2018-06-01T03:53:54.164Z,640.00
2018-06-01T03:54:54.151Z,600.00
2018-06-01T03:55:54.125Z,572.00
2018-06-01T03:56:54.076Z,556.00
2018-06-01T03:57:54.035Z,540.00
2018-06-01T03:58:54.011Z,524.00
2018-06-01T03:59:53.956Z,516.00
2018-06-01T04:00:53.933Z,500.00
2018-06-01T04:01:53.908Z,480.00
2018-06-01T04:02:53.882Z,464.00
2018-06-01T04:03:53.832Z,448.00
2018-06-01T04:04:53.815Z,444.00
2018-06-01T04:05:53.777Z,452.00
2018-06-01T04:06:54.193Z,468.00
2018-06-01T04:07:53.958Z,484.00
2018-06-01T04:08:53.688Z,500.00
2018-06-01T04:09:53.672Z,516.00
2018-06-01T04:10:53.613Z,528.00
2018-06-01T04:11:53.597Z,528.00
2018-06-01T04:12:53.553Z,520.00
2018-06-01T04:13:53.526Z,516.00
2018-06-01T04:14:53.505Z,512.00
2018-06-01T04:15:53.438Z,496.00
2018-06-01T04:16:53.445Z,488.00
2018-06-01T04:17:53.395Z,472.00
2018-06-01T04:18:53.347Z,460.00
2018-06-01T04:19:53.409Z,448.00
2018-06-01T04:20:53.284Z,436.00
2018-06-01T04:21:53.768Z,428.00
2018-06-01T04:22:53.869Z,420.00
2018-06-01T04:23:53.204Z,408.00
2018-06-01T04:24:53.463Z,404.00
2018-06-01T04:25:53.118Z,392.00
2018-06-01T04:26:53.197Z,392.00
2018-06-01T04:27:53.067Z,388.00
2018-06-01T04:28:53.044Z,392.00
2018-06-01T04:29:53.000Z,396.00
2018-06-01T04:30:52.983Z,396.00
2018-06-01T04:31:52.989Z,400.00
2018-06-01T04:32:52.930Z,404.00
2018-06-01T04:33:52.972Z,412.00
2018-06-01T04:34:52.828Z,424.00
2018-06-01T04:35:53.667Z,432.00
2018-06-01T04:36:52.773Z,448.00
2018-06-01T04:37:52.731Z,436.00
2018-06-01T04:38:52.707Z,464.00
2018-06-01T04:39:53.059Z,476.00
2018-06-01T04:40:52.650Z,488.00
2018-06-01T04:41:52.620Z,500.00
2018-06-01T04:42:52.593Z,508.00
2018-06-01T04:43:52.581Z,528.00
2018-06-01T04:44:52.514Z,548.00
2018-06-01T04:45:52.508Z,568.00
2018-06-01T04:46:52.489Z,596.00
2018-06-01T04:47:52.754Z,628.00
2018-06-01T04:48:52.391Z,652.00
2018-06-01T04:49:52.343Z,680.00
2018-06-01T04:50:53.446Z,708.00
2018-06-01T04:51:52.311Z,740.00
2018-06-01T04:52:52.365Z,772.00
2018-06-01T04:53:52.252Z,808.00
2018-06-01T04:54:52.811Z,844.00
2018-06-01T04:55:52.212Z,880.00
2018-06-01T04:56:52.120Z,908.00
2018-06-01T04:57:52.109Z,936.00
2018-06-01T04:58:52.064Z,956.00
2018-06-01T04:59:52.078Z,964.00
2018-06-01T05:00:52.043Z,968.00
2018-06-01T05:01:51.961Z,972.00
2018-06-01T05:02:51.938Z,984.00
2018-06-01T05:03:51.955Z,980.00
2018-06-01T05:04:51.924Z,992.00
2018-06-01T05:05:51.852Z,988.00
2018-06-01T05:06:51.830Z,1004.00
2018-06-01T05:07:51.808Z,1032.00
2018-06-01T05:08:51.765Z,1064.00
2018-06-01T05:09:51.718Z,1104.00
2018-06-01T05:10:51.677Z,1140.00
2018-06-01T05:11:51.790Z,1176.00
2018-06-01T05:12:51.611Z,1220.00
2018-06-01T05:13:51.593Z,1240.00
2018-06-01T05:14:51.564Z,1264.00
2018-06-01T05:15:51.523Z,1292.00
2018-06-01T05:16:51.511Z,1312.00
2018-06-01T05:17:51.458Z,1348.00
2018-06-01T05:18:51.593Z,1372.00
2018-06-01T05:19:51.406Z,1400.00
2018-06-01T05:20:51.377Z,1420.00
2018-06-01T05:21:51.329Z,1424.00
2018-06-01T05:22:51.339Z,1420.00
2018-06-01T05:23:51.404Z,1416.00
2018-06-01T05:24:51.230Z,1412.00
2018-06-01T05:25:51.191Z,1408.00
2018-06-01T05:26:51.188Z,1408.00
2018-06-01T05:27:51.135Z,1408.00
2018-06-01T05:28:51.097Z,1404.00
2018-06-01T05:29:51.078Z,1388.00
2018-06-01T05:30:51.056Z,1380.00
2018-06-01T05:31:51.011Z,1400.00
2018-06-01T05:32:50.972Z,1428.00
2018-06-01T05:33:50.956Z,1480.00
2018-06-01T05:34:50.904Z,1516.00
2018-06-01T05:35:50.862Z,1540.00
2018-06-01T05:36:50.845Z,1564.00
2018-06-01T05:37:50.816Z,1576.00
2018-06-01T05:38:50.785Z,1572.00
2018-06-01T05:39:50.750Z,1576.00
2018-06-01T05:40:50.720Z,1576.00
2018-06-01T05:41:50.689Z,1568.00
2018-06-01T05:42:50.745Z,1560.00
2018-06-01T05:43:50.615Z,1536.00
2018-06-01T05:44:50.690Z,1496.00
2018-06-01T05:45:50.738Z,1460.00
2018-06-01T05:46:50.748Z,1480.00
2018-06-01T05:47:51.402Z,1496.00
2018-06-01T05:48:50.470Z,1524.00
2018-06-01T05:49:50.457Z,1592.00
2018-06-01T05:50:50.398Z,1648.00
2018-06-01T05:51:50.432Z,1700.00
2018-06-01T05:52:50.379Z,1800.00
2018-06-01T05:53:50.371Z,1912.00
2018-06-01T05:54:50.290Z,2020.00
2018-06-01T05:55:50.228Z,2108.00
2018-06-01T05:56:50.203Z,2204.00
2018-06-01T05:57:50.162Z,2276.00
2018-06-01T05:58:50.177Z,2328.00
2018-06-01T05:59:50.111Z,2356.00
2018-06-01T06:00:50.058Z,2396.00
2018-06-01T06:01:50.044Z,2424.00
2018-06-01T06:02:50.019Z,2448.00
2018-06-01T06:03:49.967Z,2492.00
2018-06-01T06:04:49.934Z,2552.00
2018-06-01T06:05:49.911Z,2660.00
2018-06-01T06:06:49.953Z,2780.00
2018-06-01T06:07:49.868Z,2908.00
2018-06-01T06:08:49.865Z,3040.00
2018-06-01T06:09:49.805Z,3180.00
2018-06-01T06:10:49.744Z,3296.00
2018-06-01T06:11:49.743Z,3352.00
2018-06-01T06:12:49.843Z,3380.00
2018-06-01T06:13:49.690Z,3424.00
2018-06-01T06:14:49.648Z,3476.00
2018-06-01T06:15:49.602Z,3560.00
2018-06-01T06:16:49.554Z,3680.00
2018-06-01T06:17:49.583Z,3804.00
2018-06-01T06:18:49.486Z,3960.00
2018-06-01T06:19:49.551Z,4108.00
2018-06-01T06:20:49.424Z,4212.00
2018-06-01T06:21:49.406Z,4244.00
2018-06-01T06:22:49.422Z,4208.00
2018-06-01T06:23:49.349Z,4192.00
2018-06-01T06:24:49.452Z,4144.00
2018-06-01T06:25:49.285Z,4080.00
2018-06-01T06:26:49.275Z,4056.00
2018-06-01T06:27:49.226Z,4048.00
2018-06-01T06:28:49.188Z,4020.00
2018-06-01T06:29:49.182Z,3948.00
2018-06-01T06:30:49.172Z,3848.00
2018-06-01T06:31:49.092Z,3704.00
2018-06-01T06:32:49.245Z,3580.00
2018-06-01T06:33:49.065Z,3472.00
2018-06-01T06:34:48.987Z,3380.00
2018-06-01T06:35:48.949Z,3272.00
2018-06-01T06:36:48.915Z,3136.00
2018-06-01T06:37:48.962Z,3004.00
2018-06-01T06:38:48.913Z,2916.00
2018-06-01T06:39:48.816Z,2848.00
2018-06-01T06:40:48.787Z,2784.00
2018-06-01T06:41:48.757Z,2720.00
2018-06-01T06:42:48.737Z,2732.00
2018-06-01T06:43:48.718Z,2752.00
2018-06-01T06:44:48.659Z,2800.00
2018-06-01T06:45:48.634Z,2880.00
2018-06-01T06:46:48.845Z,2976.00
2018-06-01T06:47:48.732Z,3108.00
2018-06-01T06:48:48.542Z,3228.00
2018-06-01T06:49:48.560Z,3328.00
2018-06-01T06:50:48.568Z,3468.00
2018-06-01T06:51:48.451Z,3612.00
2018-06-01T06:52:48.422Z,3768.00
2018-06-01T06:53:48.380Z,3976.00
2018-06-01T06:54:48.388Z,4208.00
2018-06-01T06:55:48.328Z,4476.00
2018-06-01T06:56:48.288Z,4768.00
2018-06-01T06:57:48.249Z,5108.00
2018-06-01T06:58:48.233Z,5496.00
2018-06-01T06:59:48.182Z,5924.00
2018-06-01T07:00:48.152Z,6416.00
2018-06-01T07:01:48.140Z,7032.00
2018-06-01T07:02:48.199Z,7684.00
2018-06-01T07:03:48.097Z,8376.00
2018-06-01T07:04:48.027Z,9036.00
2018-06-01T07:05:47.980Z,9712.00
2018-06-01T07:06:47.972Z,10492.00
2018-06-01T07:07:47.928Z,11208.00
2018-06-01T07:08:47.907Z,11772.00
2018-06-01T07:09:47.874Z,12324.00
2018-06-01T07:10:47.872Z,12888.00
2018-06-01T07:11:47.797Z,13556.00
2018-06-01T07:12:47.811Z,14168.00
2018-06-01T07:13:47.747Z,14896.00
2018-06-01T07:14:47.724Z,15580.00
2018-06-01T07:15:47.695Z,16228.00
2018-06-01T07:16:47.656Z,17632.00
2018-06-01T07:17:47.629Z,18240.00
2018-06-01T07:18:47.608Z,18432.00
2018-06-01T07:19:47.551Z,19296.00
2018-06-01T07:20:47.524Z,19936.00
2018-06-01T07:21:47.527Z,20512.00
2018-06-01T07:22:47.492Z,21280.00
2018-06-01T07:23:47.447Z,22080.00
2018-06-01T07:24:47.409Z,23072.00
2018-06-01T07:25:47.401Z,24288.00
2018-06-01T07:26:47.382Z,25696.00
2018-06-01T07:27:47.377Z,26848.00
2018-06-01T07:28:47.283Z,27840.00
2018-06-01T07:29:47.309Z,29216.00
2018-06-01T07:30:47.221Z,31136.00
2018-06-01T07:31:47.181Z,37472.00
2018-06-01T07:32:47.159Z,39232.00
2018-06-01T07:33:47.125Z,43968.00
2018-06-01T07:34:47.136Z,47936.00
2018-06-01T07:35:47.079Z,41408.00
2018-06-01T07:36:47.052Z,41408.00
2018-06-01T07:37:47.025Z,51520.00
2018-06-01T07:38:47.011Z,52736.00
2018-06-01T07:39:46.941Z,51872.00
2018-06-01T07:40:46.932Z,51744.00
2018-06-01T07:41:46.875Z,47936.00
2018-06-01T07:42:46.857Z,46784.00
2018-06-01T07:43:46.831Z,40992.00
2018-06-01T07:44:46.802Z,38880.00
2018-06-01T07:45:46.792Z,39424.00
2018-06-01T07:46:46.746Z,40256.00
2018-06-01T07:47:46.726Z,38016.00
2018-06-01T07:48:46.686Z,37216.00
2018-06-01T07:49:46.683Z,37728.00
2018-06-01T07:50:46.623Z,38208.00
2018-06-01T07:51:46.596Z,39008.00
2018-06-01T07:52:46.573Z,38880.00
2018-06-01T07:53:46.581Z,38880.00
2018-06-01T07:54:46.542Z,39296.00
2018-06-01T07:55:46.493Z,39840.00
2018-06-01T07:56:46.471Z,40480.00
2018-06-01T07:57:46.450Z,41760.00
2018-06-01T07:58:46.411Z,44256.00
2018-06-01T07:59:46.371Z,46912.00
2018-06-01T08:00:46.352Z,50176.00
2018-06-01T08:01:46.318Z,54688.00
2018-06-01T08:02:46.296Z,53632.00
2018-06-01T08:03:46.282Z,53344.00
2018-06-01T08:04:46.229Z,53632.00
2018-06-01T08:05:46.225Z,61024.00
2018-06-01T08:06:46.185Z,55296.00
2018-06-01T08:07:46.153Z,116544.00
2018-06-01T08:08:46.129Z,128672.00
2018-06-01T08:09:46.095Z,71680.00
2018-06-01T08:10:46.082Z,72960.00
2018-06-01T08:11:46.049Z,152480.00
2018-06-01T08:12:46.017Z,66784.00
2018-06-01T08:13:46.013Z,161696.00
2018-06-01T08:14:46.064Z,136416.00
2018-06-01T08:15:45.968Z,85344.00
2018-06-01T08:16:45.911Z,54816.00
2018-06-01T08:17:45.915Z,53824.00
2018-06-01T08:18:45.915Z,54016.00
2018-06-01T08:19:45.840Z,66944.00
2018-06-01T08:20:45.993Z,106720.00
2018-06-01T08:21:45.801Z,113152.00
2018-06-01T08:22:45.822Z,59296.00
2018-06-01T08:23:45.760Z,57568.00
2018-06-01T08:24:45.720Z,91808.00
2018-06-01T08:25:45.751Z,77472.00
2018-06-01T08:26:45.684Z,55904.00
2018-06-01T08:27:45.649Z,90688.00
2018-06-01T08:28:45.617Z,56736.00
2018-06-01T08:29:45.608Z,57696.00
2018-06-01T08:30:45.602Z,82208.00
2018-06-01T08:31:45.558Z,73664.00
2018-06-01T08:32:45.548Z,76960.00
2018-06-01T08:33:45.519Z,49344.00
2018-06-01T08:34:45.492Z,45344.00
2018-06-01T08:35:45.476Z,45088.00
2018-06-01T08:36:45.451Z,44384.00
2018-06-01T08:37:45.422Z,43840.00
2018-06-01T08:38:45.396Z,44192.00
2018-06-01T08:39:45.376Z,47744.00
2018-06-01T08:40:45.370Z,48544.00
2018-06-01T08:41:45.341Z,46176.00
2018-06-01T08:42:45.327Z,44672.00
2018-06-01T08:43:45.280Z,44064.00
2018-06-01T08:44:45.258Z,43008.00
2018-06-01T08:45:45.247Z,42048.00
2018-06-01T08:46:45.262Z,41728.00
2018-06-01T08:47:45.209Z,42016.00
2018-06-01T08:48:45.171Z,42304.00
2018-06-01T08:49:45.147Z,42432.00
2018-06-01T08:50:45.143Z,42336.00
2018-06-01T08:51:45.104Z,42016.00
2018-06-01T08:52:45.069Z,41504.00
2018-06-01T08:53:45.163Z,40864.00
2018-06-01T08:54:45.063Z,40704.00
2018-06-01T08:55:45.004Z,40672.00
2018-06-01T08:56:44.985Z,40896.00
2018-06-01T08:57:44.971Z,41344.00
2018-06-01T08:58:44.945Z,42080.00
2018-06-01T08:59:44.914Z,43104.00
2018-06-01T09:00:45.797Z,44576.00
2018-06-01T09:01:44.868Z,45600.00
2018-06-01T09:02:44.847Z,46784.00
2018-06-01T09:03:44.817Z,47456.00
2018-06-01T09:04:44.811Z,47872.00
2018-06-01T09:05:44.771Z,48224.00
2018-06-01T09:06:44.738Z,48768.00
2018-06-01T09:07:44.731Z,49888.00
2018-06-01T09:08:44.765Z,51168.00
2018-06-01T09:09:44.673Z,53024.00
2018-06-01T09:10:44.655Z,53568.00
2018-06-01T09:11:44.648Z,52864.00
2018-06-01T09:12:44.602Z,52416.00
2018-06-01T09:13:44.626Z,51296.00
2018-06-01T09:14:44.597Z,48768.00
2018-06-01T09:15:45.323Z,49088.00
2018-06-01T09:16:44.608Z,48416.00
2018-06-01T09:17:44.479Z,49376.00
2018-06-01T09:18:44.445Z,50432.00
2018-06-01T09:19:44.454Z,50976.00
2018-06-01T09:20:44.394Z,51360.00
2018-06-01T09:21:44.362Z,52512.00
2018-06-01T09:22:44.341Z,57056.00
2018-06-01T09:23:44.333Z,59200.00
2018-06-01T09:24:44.298Z,71680.00
2018-06-01T09:25:44.280Z,81952.00
2018-06-01T09:26:44.253Z,70944.00
2018-06-01T09:27:44.228Z,67680.00
2018-06-01T09:28:44.205Z,76224.00
2018-06-01T09:29:44.161Z,68992.00
2018-06-01T09:30:44.156Z,77568.00
2018-06-01T09:31:44.125Z,86944.00
2018-06-01T09:32:44.099Z,92416.00
2018-06-01T09:33:44.161Z,80576.00
2018-06-01T09:34:44.066Z,77632.00
2018-06-01T09:35:44.029Z,75328.00
2018-06-01T09:36:44.011Z,84416.00
2018-06-01T09:37:43.970Z,90880.00
2018-06-01T09:38:43.963Z,141248.00
2018-06-01T09:39:43.932Z,138304.00
2018-06-01T09:40:43.905Z,133120.00
2018-06-01T09:41:43.906Z,129472.00
2018-06-01T09:42:43.871Z,124544.00
2018-06-01T09:43:44.014Z,120128.00
2018-06-01T09:44:43.805Z,125088.00
2018-06-01T09:45:43.784Z,129824.00
2018-06-01T09:46:43.805Z,131584.00
2018-06-01T09:53:52.929Z,126144.00
2018-06-01T09:54:50.955Z,120992.00
2018-06-01T09:55:51.789Z,127040.00
2018-06-01T09:56:52.786Z,122336.00
2018-06-01T09:57:52.268Z,120608.00
2018-06-01T09:58:52.612Z,120864.00
2018-06-01T09:59:52.824Z,126400.00
2018-06-01T10:00:52.207Z,124736.00
2018-06-01T10:02:47.522Z,112640.00
2018-06-01T10:03:47.732Z,116064.00
2018-06-01T10:05:42.233Z,117664.00
2018-06-01T10:06:41.884Z,116512.00
2018-06-01T10:07:40.025Z,123424.00
2018-06-01T10:08:39.809Z,120736.00
2018-06-01T10:09:40.047Z,119008.00
2018-06-01T10:10:41.565Z,125472.00
2018-06-01T10:11:42.017Z,126560.00
2018-06-01T10:12:39.752Z,119040.00
2018-06-01T10:13:39.656Z,110592.00
2018-06-01T10:14:39.683Z,117824.00
2018-06-01T10:15:39.676Z,133344.00
2018-06-01T10:16:39.685Z,138976.00
2018-06-01T10:17:39.571Z,124864.00
2018-06-01T10:18:39.593Z,115328.00
2018-06-01T10:19:39.634Z,47040.00
2018-06-01T10:20:39.549Z,142048.00
2018-06-01T10:21:39.590Z,49280.00
2018-06-01T10:22:39.529Z,43904.00
2018-06-01T10:23:39.436Z,115552.00
2018-06-01T10:24:39.517Z,107552.00
2018-06-01T10:25:39.401Z,129056.00
2018-06-01T10:26:39.413Z,123840.00
2018-06-01T10:27:39.388Z,128736.00
2018-06-01T10:28:39.485Z,122272.00
2018-06-01T10:29:39.333Z,121280.00
2018-06-01T10:30:39.689Z,121056.00
2018-06-01T10:31:39.304Z,123456.00
2018-06-01T10:32:39.362Z,45120.00
2018-06-01T10:33:39.287Z,129248.00
2018-06-01T10:34:39.220Z,125568.00
2018-06-01T10:35:39.221Z,124096.00
2018-06-01T10:36:39.210Z,129984.00
2018-06-01T10:37:39.162Z,142208.00
2018-06-01T10:38:39.147Z,143648.00
2018-06-01T10:39:39.164Z,142432.00
2018-06-01T10:40:39.190Z,132128.00
2018-06-01T10:41:39.186Z,128576.00
2018-06-01T10:42:39.140Z,135200.00
2018-06-01T10:43:39.044Z,135808.00
2018-06-01T10:44:39.069Z,128032.00
2018-06-01T10:45:39.008Z,122688.00
2018-06-01T10:46:38.991Z,79776.00
2018-06-01T10:47:39.061Z,126912.00
2018-06-01T10:48:38.933Z,56320.00
2018-06-01T10:49:38.964Z,82304.00
2018-06-01T10:50:38.905Z,82816.00
2018-06-01T10:51:38.916Z,106592.00
2018-06-01T10:52:38.893Z,102496.00
2018-06-01T10:53:38.889Z,105728.00
2018-06-01T10:54:38.821Z,114976.00
2018-06-01T10:55:38.808Z,123456.00
2018-06-01T10:56:38.838Z,107904.00
2018-06-01T10:57:38.759Z,109760.00
2018-06-01T10:58:38.747Z,111520.00
2018-06-01T10:59:38.724Z,107936.00
2018-06-01T11:00:38.755Z,115488.00
2018-06-01T11:01:38.745Z,121504.00
2018-06-01T11:02:38.658Z,123520.00
2018-06-01T11:03:38.695Z,114880.00
2018-06-01T11:04:38.656Z,109088.00
2018-06-01T11:05:38.628Z,118048.00
2018-06-01T11:06:38.815Z,125728.00
2018-06-01T11:07:38.599Z,120224.00
2018-06-01T11:08:38.596Z,108608.00
2018-06-01T11:09:38.604Z,110368.00
2018-06-01T11:10:38.579Z,116128.00
2018-06-01T11:11:38.540Z,115040.00
2018-06-01T11:12:38.458Z,116416.00
2018-06-01T11:13:38.497Z,108928.00
2018-06-01T11:14:38.418Z,64832.00
2018-06-01T11:15:38.414Z,111840.00
2018-06-01T11:16:38.380Z,105632.00
2018-06-01T11:17:38.478Z,101024.00
2018-06-01T11:18:38.344Z,111328.00
2018-06-01T11:19:38.433Z,117184.00
2018-06-01T11:20:39.075Z,110784.00
2018-06-01T11:21:38.351Z,117728.00
2018-06-01T11:22:38.251Z,128928.00
2018-06-01T11:23:38.258Z,136064.00
2018-06-01T11:24:38.213Z,126176.00
2018-06-01T11:25:38.247Z,112960.00
2018-06-01T11:26:38.224Z,110944.00
2018-06-01T11:27:38.541Z,115648.00
2018-06-01T11:28:38.146Z,112768.00
2018-06-01T11:29:38.142Z,107584.00
2018-06-01T11:30:38.106Z,113824.00
2018-06-01T11:31:38.154Z,116416.00
2018-06-01T11:32:38.057Z,117408.00
2018-06-01T11:33:38.106Z,133344.00
2018-06-01T11:34:38.054Z,133344.00
2018-06-01T11:35:38.671Z,123296.00
2018-06-01T11:36:37.961Z,133152.00
2018-06-01T11:37:38.159Z,140608.00
2018-06-01T11:38:38.004Z,121248.00
2018-06-01T11:39:38.585Z,100288.00
2018-06-01T11:40:38.019Z,103744.00
2018-06-01T11:41:37.890Z,92128.00
2018-06-01T11:42:37.945Z,51328.00
2018-06-01T11:43:37.823Z,45504.00
2018-06-01T11:44:37.830Z,42752.00
2018-06-01T11:45:37.924Z,41440.00
2018-06-01T11:46:40.732Z,41888.00
2018-06-01T11:47:37.760Z,41984.00
2018-06-01T11:48:37.725Z,23360.00
2018-06-01T11:49:37.734Z,26144.00
2018-06-01T11:50:37.697Z,52672.00
2018-06-01T11:51:37.813Z,55808.00
2018-06-01T11:52:37.660Z,55552.00
2018-06-01T11:53:37.687Z,55264.00
2018-06-01T11:54:37.607Z,55200.00
2018-06-01T11:55:37.592Z,46912.00
2018-06-01T11:56:37.572Z,36096.00
2018-06-01T11:57:37.619Z,54816.00
2018-06-01T11:58:37.558Z,35296.00
2018-06-01T11:59:37.570Z,53024.00
2018-06-01T12:00:37.507Z,54464.00
2018-06-01T12:01:37.532Z,52704.00
2018-06-01T12:02:37.439Z,56736.00
2018-06-01T12:03:37.461Z,39744.00
2018-06-01T12:04:37.475Z,32608.00
2018-06-01T12:05:37.419Z,30528.00
2018-06-01T12:06:37.376Z,35616.00
2018-06-01T12:07:37.368Z,66560.00
2018-06-01T12:08:37.386Z,68000.00
2018-06-01T12:09:37.309Z,47648.00
2018-06-01T12:10:37.283Z,48704.00
2018-06-01T12:11:37.276Z,52000.00
2018-06-01T12:12:37.256Z,65728.00
2018-06-01T12:13:37.277Z,69952.00
2018-06-01T12:14:37.210Z,52768.00
2018-06-01T12:15:37.176Z,35040.00
2018-06-01T12:16:37.157Z,41024.00
2018-06-01T12:17:37.196Z,40032.00
2018-06-01T12:18:37.199Z,39104.00
2018-06-01T12:19:37.201Z,59456.00